Time;durP1;ratioP1;P1;durP2;ratioP2;P2;SDS_P1;SDS_P2;PMS_P1;PMS_P2;Temp;Humidity;BMP_temperature;BMP_pressure;BME280_temperature;BME280_humidity;BME280_pressure;Samples;Min_cycle;Max_cycle;Signal;HPM_P1;HPM_P2
2023/10/19 00:00:39;;;;;;;22.98;12.93;;;8.60;99.90;;;;;;5063807;28;20047;-72
2023/10/19 00:03:08;;;;;;;24.70;12.35;;;8.70;99.90;;;;;;5081323;28;20121;-72
2023/10/19 00:05:34;;;;;;;20.10;12.43;;;8.70;99.90;;;;;;5064822;28;20047;-72
2023/10/19 00:08:05;;;;;;;21.58;12.60;;;8.60;99.90;;;;;;5080295;28;20052;-71
2023/10/19 00:10:37;;;;;;;20.33;11.90;;;8.60;99.90;;;;;;5064803;28;20123;-72
2023/10/19 00:13:08;;;;;;;20.20;11.70;;;8.70;99.90;;;;;;5063057;28;20071;-72
2023/10/19 00:15:40;;;;;;;25.20;13.02;;;8.60;99.90;;;;;;5064665;28;20055;-72
2023/10/19 00:20:53;;;;;;;27.52;14.43;;;8.70;99.90;;;;;;5080549;28;20087;-72
2023/10/19 00:23:31;;;;;;;23.65;13.35;;;8.70;99.90;;;;;;5064859;28;20449;-71
2023/10/19 00:25:59;;;;;;;21.00;13.23;;;8.70;99.90;;;;;;5080286;28;20058;-70
2023/10/19 00:28:28;;;;;;;22.95;12.80;;;8.70;99.90;;;;;;5064215;28;20048;-72
2023/10/19 00:30:59;;;;;;;23.70;14.32;;;8.70;99.90;;;;;;5064476;28;20325;-72
2023/10/19 00:33:28;;;;;;;22.95;14.43;;;8.70;99.90;;;;;;5080491;28;20040;-71
2023/10/19 00:36:13;;;;;;;21.88;13.68;;;8.70;99.90;;;;;;5080844;28;20054;-72
2023/10/19 00:41:30;;;;;;;22.42;13.32;;;8.70;99.90;;;;;;5081163;28;20059;-70
2023/10/19 00:44:07;;;;;;;24.17;13.20;;;8.80;99.90;;;;;;5080171;28;20044;-70
2023/10/19 00:46:37;;;;;;;22.35;13.05;;;8.70;99.90;;;;;;5062490;28;20163;-69
2023/10/19 00:49:06;;;;;;;22.38;13.57;;;8.70;99.90;;;;;;5080479;28;20060;-69
2023/10/19 00:54:35;;;;;;;21.35;12.75;;;8.70;99.90;;;;;;5080437;28;20051;-68
2023/10/19 00:57:10;;;;;;;22.55;13.40;;;8.70;99.90;;;;;;5079979;28;20078;-67
2023/10/19 00:59:48;;;;;;;26.02;14.48;;;8.70;99.90;;;;;;5110883;28;20080;-68
2023/10/19 01:02:21;;;;;;;22.25;14.05;;;8.70;99.90;;;;;;5100701;28;20414;-69
2023/10/19 01:04:59;;;;;;;19.80;13.00;;;8.70;99.90;;;;;;5118158;28;20071;-69
2023/10/19 01:07:29;;;;;;;30.58;15.18;;;8.70;99.90;;;;;;5118290;28;20061;-68
2023/10/19 01:09:59;;;;;;;27.38;15.25;;;8.70;99.90;;;;;;5100591;28;20414;-69
2023/10/19 01:15:07;;;;;;;24.27;14.85;;;8.70;99.90;;;;;;5118457;28;20089;-69
2023/10/19 01:17:39;;;;;;;26.40;14.00;;;8.70;99.90;;;;;;5117641;28;20047;-68
2023/10/19 01:25:49;;;;;;;25.73;14.85;;;8.70;99.90;;;;;;5117035;28;20415;-72
2023/10/19 01:28:17;;;;;;;23.50;14.43;;;8.70;99.90;;;;;;5100083;28;20050;-71
2023/10/19 01:30:51;;;;;;;28.52;15.90;;;8.70;99.90;;;;;;5099759;28;20075;-71
2023/10/19 01:33:21;;;;;;;23.92;13.82;;;8.70;99.90;;;;;;5117650;28;20058;-71
2023/10/19 01:38:32;;;;;;;29.13;16.05;;;8.70;99.90;;;;;;5098595;28;20060;-70
2023/10/19 01:41:06;;;;;;;22.67;13.93;;;8.70;99.90;;;;;;5118117;28;20051;-70
2023/10/19 01:43:32;;;;;;;26.73;14.95;;;8.70;99.90;;;;;;5117894;28;20048;-69
2023/10/19 01:46:04;;;;;;;22.42;13.93;;;8.70;99.90;;;;;;5117784;28;20093;-70
2023/10/19 01:48:35;;;;;;;29.50;15.27;;;8.60;99.90;;;;;;5118314;28;20427;-69
2023/10/19 01:51:05;;;;;;;27.42;15.02;;;8.70;99.90;;;;;;5116986;28;20043;-69
2023/10/19 01:53:44;;;;;;;24.23;14.43;;;8.70;99.90;;;;;;5118394;28;20048;-69
2023/10/19 01:56:14;;;;;;;27.33;13.82;;;8.70;99.90;;;;;;5116860;28;20051;-69
2023/10/19 01:58:41;;;;;;;25.48;15.63;;;8.70;99.90;;;;;;5117848;28;20048;-71
2023/10/19 02:01:29;;;;;;;23.23;13.73;;;8.80;99.90;;;;;;5118139;28;20044;-71
2023/10/19 02:04:05;;;;;;;23.77;13.82;;;8.70;99.90;;;;;;5098106;28;20051;-71
2023/10/19 02:06:37;;;;;;;22.45;14.45;;;8.70;99.90;;;;;;5118384;28;20051;-69
2023/10/19 02:09:17;;;;;;;23.80;13.67;;;8.70;99.90;;;;;;5117347;28;20032;-69
2023/10/19 02:11:45;;;;;;;21.42;13.05;;;8.80;99.90;;;;;;5117691;28;20056;-69
2023/10/19 02:14:14;;;;;;;22.83;13.50;;;8.80;99.90;;;;;;5117779;28;20059;-69
2023/10/19 02:16:52;;;;;;;21.02;12.75;;;8.80;99.90;;;;;;5116710;28;20105;-69
2023/10/19 02:19:22;;;;;;;24.33;13.68;;;8.80;99.90;;;;;;5118010;28;20085;-68
2023/10/19 02:21:49;;;;;;;19.65;12.95;;;8.80;99.90;;;;;;5117053;28;20044;-69
2023/10/19 02:24:15;;;;;;;19.80;12.07;;;8.80;99.90;;;;;;5117252;28;20048;-70
2023/10/19 02:26:44;;;;;;;23.40;13.07;;;8.80;99.90;;;;;;5117811;28;20043;-70
2023/10/19 02:29:10;;;;;;;22.63;14.00;;;8.80;99.90;;;;;;5098618;28;20499;-71
2023/10/19 02:31:39;;;;;;;22.13;13.90;;;8.80;99.90;;;;;;5099240;28;20131;-72
2023/10/19 02:34:09;;;;;;;22.42;13.55;;;8.80;99.90;;;;;;5081180;28;20048;-71
2023/10/19 02:36:36;;;;;;;21.50;12.65;;;8.80;99.90;;;;;;5117621;28;20055;-71
2023/10/19 02:39:10;;;;;;;20.90;12.50;;;8.90;99.90;;;;;;5097818;28;20040;-71
2023/10/19 02:41:41;;;;;;;18.85;12.38;;;8.90;99.90;;;;;;5098808;28;20101;-71
2023/10/19 02:46:45;;;;;;;20.08;12.20;;;8.90;99.90;;;;;;5116077;28;20048;-71
2023/10/19 02:49:13;;;;;;;21.65;12.02;;;9.00;99.90;;;;;;5098692;28;20036;-72
2023/10/19 02:51:45;;;;;;;18.80;11.85;;;9.00;99.90;;;;;;5097831;28;20063;-71
2023/10/19 02:54:22;;;;;;;19.65;12.15;;;8.90;99.90;;;;;;5116590;28;20032;-72
2023/10/19 02:56:51;;;;;;;17.88;11.23;;;9.00;99.90;;;;;;5098612;28;20080;-71
2023/10/19 02:59:22;;;;;;;18.00;11.35;;;8.90;99.90;;;;;;5097608;28;20132;-71
2023/10/19 03:02:01;;;;;;;19.35;12.10;;;9.00;99.90;;;;;;5098361;28;20040;-71
2023/10/19 03:04:30;;;;;;;16.20;12.00;;;9.00;99.90;;;;;;5097282;28;20044;-70
2023/10/19 03:06:56;;;;;;;16.73;11.52;;;9.00;99.90;;;;;;5081300;28;20040;-68
2023/10/19 03:09:28;;;;;;;18.92;10.98;;;9.00;99.90;;;;;;5101806;28;20063;-70
2023/10/19 03:11:59;;;;;;;15.67;10.17;;;9.00;99.90;;;;;;5101588;28;20068;-70
2023/10/19 03:14:34;;;;;;;20.27;11.52;;;9.00;99.90;;;;;;5085427;28;20074;-71
2023/10/19 03:17:00;;;;;;;19.15;11.63;;;9.00;99.90;;;;;;5101233;28;20263;-70
2023/10/19 03:19:26;;;;;;;19.42;11.90;;;9.00;99.90;;;;;;5102305;28;20961;-72
2023/10/19 03:21:58;;;;;;;17.33;11.88;;;9.00;99.90;;;;;;5084839;28;20051;-73
2023/10/19 03:24:38;;;;;;;18.95;12.90;;;9.00;99.90;;;;;;5084898;28;20053;-72
2023/10/19 03:27:18;;;;;;;19.65;11.95;;;9.00;99.90;;;;;;5102200;28;20072;-72
2023/10/19 03:29:53;;;;;;;21.98;13.27;;;9.00;99.90;;;;;;5101209;28;20401;-71
2023/10/19 03:32:22;;;;;;;20.63;12.73;;;9.00;99.90;;;;;;5102223;28;20080;-72
2023/10/19 03:34:55;;;;;;;20.45;12.70;;;9.10;99.90;;;;;;5101602;28;20467;-72
2023/10/19 03:37:25;;;;;;;21.52;13.45;;;9.00;99.90;;;;;;5100721;28;20040;-72
2023/10/19 03:39:51;;;;;;;20.65;12.73;;;9.10;99.90;;;;;;5102051;28;20420;-72
2023/10/19 03:42:18;;;;;;;22.13;13.45;;;9.10;99.90;;;;;;5119152;28;20062;-73
2023/10/19 03:47:19;;;;;;;23.10;12.40;;;9.10;99.90;;;;;;5100782;28;20047;-72
2023/10/19 03:49:49;;;;;;;22.48;13.63;;;9.10;99.90;;;;;;5120140;28;20082;-72
2023/10/19 03:54:41;;;;;;;20.27;14.05;;;9.20;99.90;;;;;;5101134;28;20076;-71
2023/10/19 03:57:11;;;;;;;21.70;13.57;;;9.20;99.90;;;;;;5084973;28;20106;-71
2023/10/19 03:59:38;;;;;;;21.05;13.05;;;9.20;99.90;;;;;;5118955;28;20055;-72
2023/10/19 04:02:13;;;;;;;17.67;12.43;;;9.20;99.90;;;;;;5101730;28;20048;-72
2023/10/19 04:04:43;;;;;;;21.02;14.32;;;9.20;99.90;;;;;;5100927;28;20110;-70
2023/10/19 04:07:21;;;;;;;19.73;13.32;;;9.20;99.90;;;;;;5119797;28;20047;-70
2023/10/19 04:12:37;;;;;;;21.63;12.95;;;9.20;99.90;;;;;;5118588;28;20079;-71
2023/10/19 04:15:17;;;;;;;21.95;13.13;;;9.20;99.90;;;;;;5101128;28;20071;-71
2023/10/19 04:17:47;;;;;;;20.85;13.13;;;9.20;99.90;;;;;;5100904;28;20059;-72
2023/10/19 04:22:43;;;;;;;18.58;13.07;;;9.30;99.90;;;;;;5101413;28;20112;-71
2023/10/19 04:25:12;;;;;;;16.85;11.90;;;9.30;99.90;;;;;;5099824;28;20054;-70
2023/10/19 04:27:42;;;;;;;20.33;12.20;;;9.30;99.90;;;;;;5100981;28;20048;-71
2023/10/19 04:30:18;;;;;;;16.85;10.95;;;9.30;99.90;;;;;;5100088;28;20440;-71
2023/10/19 04:32:45;;;;;;;15.60;10.63;;;9.30;99.90;;;;;;5100893;28;20105;-71
2023/10/19 04:35:21;;;;;;;18.33;11.85;;;9.30;99.90;;;;;;5100834;28;20054;-72
2023/10/19 04:37:47;;;;;;;17.63;11.18;;;9.30;99.90;;;;;;5082958;28;20076;-71
2023/10/19 04:40:13;;;;;;;16.88;12.07;;;9.30;99.90;;;;;;5084265;28;20119;-71
2023/10/19 04:42:39;;;;;;;14.93;10.75;;;9.30;99.90;;;;;;5100094;28;20846;-72
2023/10/19 04:45:06;;;;;;;17.33;10.88;;;9.40;99.90;;;;;;5084330;28;20106;-72
2023/10/19 04:47:35;;;;;;;15.07;11.40;;;9.30;99.90;;;;;;5083709;28;20083;-72
2023/10/19 04:50:02;;;;;;;14.98;10.68;;;9.40;99.90;;;;;;5100217;28;20051;-72
2023/10/19 04:52:29;;;;;;;14.75;10.55;;;9.40;99.90;;;;;;5084082;28;20097;-72
2023/10/19 04:54:54;;;;;;;16.17;11.40;;;9.40;99.90;;;;;;5099646;28;20103;-73
2023/10/19 04:57:20;;;;;;;14.98;11.02;;;9.40;99.90;;;;;;5100326;28;20079;-71
2023/10/19 04:59:47;;;;;;;17.00;11.43;;;9.40;99.90;;;;;;5082774;28;20062;-72
2023/10/19 05:02:13;;;;;;;14.57;10.00;;;9.40;99.90;;;;;;5100610;28;20120;-72
2023/10/19 05:04:40;;;;;;;14.48;10.23;;;9.40;99.90;;;;;;5118078;28;20046;-72
2023/10/19 05:07:07;;;;;;;16.77;11.23;;;9.50;99.90;;;;;;5100501;28;20430;-72
2023/10/19 05:09:32;;;;;;;14.52;10.77;;;9.50;99.90;;;;;;5100453;28;20101;-72
2023/10/19 05:11:58;;;;;;;14.30;10.07;;;9.50;99.90;;;;;;5084804;28;20047;-70
2023/10/19 05:14:24;;;;;;;13.30;9.65;;;9.50;99.90;;;;;;5084508;28;20055;-72
2023/10/19 05:16:50;;;;;;;14.10;10.07;;;9.60;99.90;;;;;;5082152;28;20054;-71
2023/10/19 05:19:16;;;;;;;13.23;9.57;;;9.60;99.90;;;;;;5082595;28;20067;-71
2023/10/19 05:21:43;;;;;;;13.85;9.85;;;9.60;99.90;;;;;;5099243;28;20047;-71
2023/10/19 05:24:09;;;;;;;13.82;10.55;;;9.60;99.90;;;;;;5099970;28;20048;-71
2023/10/19 05:26:35;;;;;;;14.75;10.88;;;9.60;99.90;;;;;;5082656;28;20115;-72
2023/10/19 05:29:00;;;;;;;13.65;10.07;;;9.60;99.90;;;;;;5081983;28;20036;-72
2023/10/19 05:31:28;;;;;;;13.38;9.52;;;9.60;99.90;;;;;;5082351;28;20508;-72
2023/10/19 05:33:54;;;;;;;14.05;9.82;;;9.60;99.90;;;;;;5097913;28;20048;-74
2023/10/19 05:36:19;;;;;;;11.98;9.23;;;9.60;99.90;;;;;;5099611;28;20067;-73
2023/10/19 05:38:45;;;;;;;13.57;10.02;;;9.60;99.90;;;;;;5098690;28;20047;-72
2023/10/19 05:41:11;;;;;;;10.45;8.68;;;9.60;99.90;;;;;;5082681;28;20709;-73
2023/10/19 05:43:41;;;;;;;12.45;9.27;;;9.60;99.90;;;;;;5082620;28;20054;-72
2023/10/19 05:46:06;;;;;;;13.65;9.52;;;9.60;99.90;;;;;;5081774;28;20039;-73
2023/10/19 05:48:32;;;;;;;12.80;9.85;;;9.60;99.90;;;;;;5082462;28;20044;-72
2023/10/19 05:50:58;;;;;;;12.18;9.25;;;9.60;99.90;;;;;;5081450;28;20052;-73
2023/10/19 05:53:24;;;;;;;14.27;10.13;;;9.60;99.90;;;;;;5099633;28;20161;-73
2023/10/19 05:55:50;;;;;;;13.93;10.32;;;9.60;99.90;;;;;;5081734;28;20047;-73
2023/10/19 05:58:16;;;;;;;14.60;10.52;;;9.60;99.90;;;;;;5118032;28;20093;-73
2023/10/19 06:00:42;;;;;;;14.52;10.73;;;9.60;99.90;;;;;;5082236;28;20052;-72
2023/10/19 06:03:08;;;;;;;14.20;10.50;;;9.70;99.90;;;;;;5098797;28;20052;-71
2023/10/19 06:05:33;;;;;;;14.00;9.88;;;9.70;99.90;;;;;;5117783;28;20044;-72
2023/10/19 06:07:59;;;;;;;12.88;9.77;;;9.70;99.90;;;;;;5081563;28;20099;-72
2023/10/19 06:10:27;;;;;;;14.57;10.32;;;9.70;99.90;;;;;;5099406;28;20059;-72
2023/10/19 06:12:53;;;;;;;13.68;10.25;;;9.70;99.90;;;;;;5098458;28;20048;-72
2023/10/19 06:15:23;;;;;;;13.52;11.15;;;9.80;99.90;;;;;;5099094;28;20042;-73
2023/10/19 06:17:49;;;;;;;13.35;9.93;;;9.70;99.90;;;;;;5098747;28;20086;-72
2023/10/19 06:20:24;;;;;;;14.55;10.35;;;9.80;99.90;;;;;;5115837;28;20063;-72
2023/10/19 06:22:55;;;;;;;15.23;10.50;;;9.70;99.90;;;;;;5081410;28;20051;-72
2023/10/19 06:25:23;;;;;;;16.52;10.52;;;9.80;99.90;;;;;;5115824;28;20047;-73
2023/10/19 06:27:50;;;;;;;16.90;11.05;;;9.80;99.90;;;;;;5081856;28;20046;-71
2023/10/19 06:30:21;;;;;;;14.60;10.05;;;9.80;99.90;;;;;;5097138;28;20043;-72
2023/10/19 06:32:54;;;;;;;16.38;11.75;;;9.80;99.90;;;;;;5098080;28;20051;-71
2023/10/19 06:35:21;;;;;;;14.50;10.27;;;9.80;99.90;;;;;;5098455;28;20568;-72
2023/10/19 06:37:50;;;;;;;14.23;11.20;;;9.90;99.90;;;;;;5097327;28;20047;-72
2023/10/19 06:40:17;;;;;;;16.83;10.48;;;9.90;99.90;;;;;;5098346;28;20056;-72
2023/10/19 06:42:47;;;;;;;13.85;10.73;;;9.90;99.90;;;;;;5097716;28;20042;-72
2023/10/19 06:45:14;;;;;;;14.63;10.73;;;9.90;99.90;;;;;;5102446;28;20584;-73
2023/10/19 06:47:47;;;;;;;14.52;11.15;;;9.90;99.90;;;;;;5102064;28;20051;-73
2023/10/19 06:50:17;;;;;;;14.40;10.50;;;9.90;99.90;;;;;;5101996;28;20071;-72
2023/10/19 06:52:46;;;;;;;13.95;10.65;;;9.90;99.90;;;;;;5102518;28;20479;-72
2023/10/19 06:55:16;;;;;;;14.65;10.70;;;9.90;99.90;;;;;;5101605;28;20059;-72
2023/10/19 06:57:48;;;;;;;16.45;11.32;;;9.90;99.90;;;;;;5102542;28;20064;-72
2023/10/19 07:00:19;;;;;;;14.80;10.57;;;9.90;99.90;;;;;;5084526;28;20046;-72
2023/10/19 07:02:46;;;;;;;16.00;11.50;;;9.90;99.90;;;;;;5102572;28;20047;-72
2023/10/19 07:05:13;;;;;;;15.15;11.07;;;10.00;99.90;;;;;;5102671;28;20158;-71
2023/10/19 07:07:41;;;;;;;15.05;11.35;;;10.00;99.90;;;;;;5100499;28;20064;-70
2023/10/19 07:10:12;;;;;;;14.95;11.05;;;10.00;99.90;;;;;;5102167;28;20090;-70
2023/10/19 07:12:44;;;;;;;15.40;11.48;;;10.00;99.90;;;;;;5100669;28;20055;-71
2023/10/19 07:15:18;;;;;;;16.67;12.48;;;10.00;99.90;;;;;;5119967;28;20043;-71
2023/10/19 07:17:49;;;;;;;16.23;11.45;;;10.10;99.90;;;;;;5084927;28;20100;-71
2023/10/19 07:20:27;;;;;;;16.13;11.70;;;10.10;99.90;;;;;;5101073;28;20053;-71
2023/10/19 07:22:54;;;;;;;15.52;12.05;;;10.10;99.90;;;;;;5102065;28;20156;-71
2023/10/19 07:25:21;;;;;;;15.43;11.82;;;10.10;99.90;;;;;;5119234;28;20816;-71
2023/10/19 07:27:50;;;;;;;15.75;11.85;;;10.10;99.90;;;;;;5119784;28;20051;-70
2023/10/19 07:30:26;;;;;;;16.98;12.30;;;10.10;99.90;;;;;;5119433;28;20130;-71
2023/10/19 07:32:58;;;;;;;17.30;11.48;;;10.10;99.90;;;;;;5083980;28;20036;-71
2023/10/19 07:35:27;;;;;;;16.58;11.32;;;10.10;99.90;;;;;;5099330;28;20416;-71
2023/10/19 07:41:03;;;;;;;17.00;11.88;;;10.10;99.90;;;;;;5420367;22;20112;-72
2023/10/19 07:43:29;;;;;;;17.08;11.68;;;10.10;99.90;;;;;;5112373;22;20406;-71
2023/10/19 07:45:56;;;;;;;19.92;11.90;;;10.10;99.90;;;;;;5072078;28;20151;-75
2023/10/19 07:48:21;;;;;;;17.15;12.30;;;10.20;99.90;;;;;;5073669;28;20087;-75
2023/10/19 07:50:47;;;;;;;16.85;12.13;;;10.10;99.90;;;;;;5073101;28;20078;-75
2023/10/19 07:53:13;;;;;;;20.95;12.75;;;10.20;99.90;;;;;;5072250;28;20044;-74
2023/10/19 07:55:39;;;;;;;17.67;12.90;;;10.20;99.90;;;;;;5091503;28;20123;-75
2023/10/19 07:58:06;;;;;;;19.65;12.82;;;10.20;99.90;;;;;;5091454;28;20063;-76
2023/10/19 08:00:33;;;;;;;20.08;12.77;;;10.20;99.90;;;;;;5091666;28;20115;-75
2023/10/19 08:02:59;;;;;;;19.17;12.80;;;10.20;99.90;;;;;;5092556;28;20051;-75
2023/10/19 08:05:26;;;;;;;23.35;14.18;;;10.30;99.90;;;;;;5092507;28;20101;-74
2023/10/19 08:07:51;;;;;;;18.77;12.75;;;10.30;99.90;;;;;;5091921;28;20124;-76
2023/10/19 08:10:19;;;;;;;33.72;19.98;;;10.30;99.90;;;;;;5073074;28;20056;-75
2023/10/19 08:12:49;;;;;;;36.78;21.38;;;10.30;99.90;;;;;;5073206;28;20055;-76
2023/10/19 08:15:16;;;;;;;28.23;17.92;;;10.30;99.90;;;;;;5091525;28;20036;-76
2023/10/19 08:17:44;;;;;;;25.13;16.75;;;10.30;99.90;;;;;;5073455;28;20415;-76
2023/10/19 08:20:22;;;;;;;26.50;18.15;;;10.30;99.90;;;;;;5073251;28;20055;-75
2023/10/19 08:22:53;;;;;;;24.88;15.77;;;10.30;99.90;;;;;;5091514;28;20046;-76
2023/10/19 08:25:19;;;;;;;22.48;15.57;;;10.30;99.90;;;;;;5073464;28;20383;-74
2023/10/19 08:27:45;;;;;;;22.35;14.93;;;10.40;99.90;;;;;;5072522;28;20040;-75
2023/10/19 08:30:17;;;;;;;25.83;14.73;;;10.40;99.90;;;;;;5072898;28;20044;-75
2023/10/19 08:32:45;;;;;;;24.98;15.30;;;10.40;99.90;;;;;;5072879;28;20587;-75
2023/10/19 08:35:11;;;;;;;24.73;15.23;;;10.50;99.90;;;;;;5072778;28;20064;-75
2023/10/19 08:37:41;;;;;;;24.23;15.18;;;10.40;99.90;;;;;;5091054;28;20072;-75
2023/10/19 08:40:14;;;;;;;22.65;15.02;;;10.50;99.90;;;;;;5072583;28;20078;-75
2023/10/19 08:42:40;;;;;;;;;;;10.50;99.90;;;;;;5091032;28;20060;-75
2023/10/19 08:45:08;;;;;;;25.50;16.42;;;10.60;99.90;;;;;;5090562;28;19927;-76
2023/10/19 08:47:36;;;;;;;28.73;18.25;;;10.60;99.90;;;;;;5071905;28;20048;-74
2023/10/19 08:50:04;;;;;;;29.08;17.30;;;10.60;99.90;;;;;;5072228;28;20487;-75
2023/10/19 08:52:32;;;;;;;26.88;16.42;;;10.60;99.90;;;;;;5089141;28;20036;-75
2023/10/19 08:54:58;;;;;;;25.80;16.15;;;10.70;99.90;;;;;;5090002;28;20130;-75
2023/10/19 08:57:24;;;;;;;28.13;17.08;;;10.70;99.90;;;;;;5090184;28;20123;-76
2023/10/19 08:59:50;;;;;;;24.48;16.10;;;10.70;99.90;;;;;;5072284;28;20488;-75
2023/10/19 09:02:19;;;;;;;27.23;17.65;;;10.70;99.90;;;;;;5072599;28;20501;-76
2023/10/19 09:04:47;;;;;;;28.05;18.25;;;10.70;99.90;;;;;;5072411;28;20055;-74
2023/10/19 09:07:14;;;;;;;28.23;18.92;;;10.80;99.90;;;;;;5072056;28;20044;-73
2023/10/19 09:09:40;;;;;;;42.75;18.13;;;10.80;99.90;;;;;;5070773;28;20148;-74
2023/10/19 09:12:09;;;;;;;29.30;17.40;;;10.80;99.90;;;;;;5055583;28;20051;-73
2023/10/19 09:14:39;;;;;;;25.88;15.57;;;10.90;99.90;;;;;;5090115;28;20040;-74
2023/10/19 09:17:05;;;;;;;26.52;16.92;;;10.90;99.90;;;;;;5072180;28;20496;-73
2023/10/19 09:19:37;;;;;;;27.23;16.05;;;10.80;99.90;;;;;;5071744;28;20147;-73
2023/10/19 09:22:18;;;;;;;27.20;16.50;;;10.90;99.90;;;;;;5071536;28;20039;-74
2023/10/19 09:24:49;;;;;;;25.25;14.85;;;10.90;99.90;;;;;;5090182;28;20424;-74
2023/10/19 09:27:19;;;;;;;25.15;16.42;;;10.90;99.90;;;;;;5071703;28;20046;-69
2023/10/19 09:29:47;;;;;;;27.05;16.52;;;10.90;99.90;;;;;;5090281;28;20040;-72
2023/10/19 09:32:15;;;;;;;30.45;17.20;;;11.00;99.90;;;;;;5071645;28;20165;-72
2023/10/19 09:34:43;;;;;;;25.35;16.55;;;11.00;99.90;;;;;;5089835;28;20522;-73
2023/10/19 09:37:10;;;;;;;27.95;17.15;;;11.00;99.90;;;;;;5072440;28;20055;-73
2023/10/19 09:39:36;;;;;;;27.63;17.50;;;11.00;99.90;;;;;;5072452;28;20044;-74
2023/10/19 09:42:10;;;;;;;30.60;19.00;;;11.00;99.90;;;;;;5090174;28;20479;-74
2023/10/19 09:44:47;;;;;;;27.35;17.90;;;11.00;99.90;;;;;;5071793;28;20055;-74
2023/10/19 09:47:41;;;;;;;29.88;17.48;;;11.00;99.90;;;;;;5071823;28;20050;-73
2023/10/19 09:50:07;;;;;;;25.05;16.50;;;11.00;99.90;;;;;;5100986;28;20083;-74
2023/10/19 09:52:34;;;;;;;27.02;16.38;;;11.00;99.90;;;;;;5091372;28;20082;-73
2023/10/19 09:55:08;;;;;;;31.17;17.40;;;11.10;99.90;;;;;;5109779;28;20024;-76
2023/10/19 09:57:39;;;;;;;29.25;17.60;;;11.10;99.90;;;;;;5091803;28;20067;-75
2023/10/19 10:00:11;;;;;;;27.52;16.70;;;11.10;99.90;;;;;;5091209;28;20086;-74
2023/10/19 10:02:42;;;;;;;27.70;16.65;;;11.20;99.90;;;;;;5074498;28;20082;-75
2023/10/19 10:05:43;;;;;;;28.65;17.25;;;11.20;99.90;;;;;;5109524;28;20047;-76
2023/10/19 10:08:17;;;;;;;28.42;17.42;;;11.20;99.90;;;;;;5102577;28;20398;-74
2023/10/19 10:10:47;;;;;;;30.95;17.17;;;11.20;99.90;;;;;;5109163;28;20044;-73
2023/10/19 10:13:30;;;;;;;29.88;17.50;;;11.20;99.90;;;;;;5109734;28;20434;-74
2023/10/19 10:15:58;;;;;;;27.27;17.85;;;11.20;99.90;;;;;;5109448;28;20441;-74
2023/10/19 10:18:25;;;;;;;28.30;17.20;;;11.30;99.90;;;;;;5090949;28;20508;-74
2023/10/19 10:21:12;;;;;;;30.23;16.75;;;11.30;99.90;;;;;;5093255;28;20085;-73
2023/10/19 10:23:42;;;;;;;28.15;16.98;;;11.30;99.90;;;;;;5089748;28;20052;-74
2023/10/19 10:26:09;;;;;;;27.58;16.70;;;11.40;99.90;;;;;;5089005;28;20044;-73
2023/10/19 10:28:38;;;;;;;30.40;17.38;;;11.40;99.90;;;;;;5071338;28;20063;-74
2023/10/19 10:31:24;;;;;;;29.88;17.88;;;11.40;99.90;;;;;;5071345;28;20119;-73
2023/10/19 10:33:51;;;;;;;33.80;17.58;;;11.40;99.90;;;;;;5089071;28;20461;-74
2023/10/19 10:36:20;;;;;;;29.38;17.63;;;11.50;99.90;;;;;;5088544;28;20043;-73
2023/10/19 10:39:05;;;;;;;29.33;18.00;;;11.50;99.90;;;;;;5070504;28;20040;-74
2023/10/19 10:41:31;;;;;;;26.85;16.55;;;11.50;99.90;;;;;;5087831;28;20638;-74
2023/10/19 10:43:58;;;;;;;32.22;19.17;;;11.50;99.90;;;;;;5088865;28;20060;-74
2023/10/19 10:46:27;;;;;;;34.20;20.10;;;11.50;99.90;;;;;;5089181;28;20483;-71
2023/10/19 10:48:53;;;;;;;30.77;18.08;;;11.60;99.90;;;;;;5089356;28;20040;-72
2023/10/19 10:51:24;;;;;;;31.77;18.40;;;11.50;99.90;;;;;;5089230;28;20046;-71
2023/10/19 10:53:51;;;;;;;31.48;19.00;;;11.60;99.90;;;;;;5089396;28;20341;-72
2023/10/19 10:56:18;;;;;;;34.97;20.13;;;11.60;99.90;;;;;;5088975;28;20036;-74
2023/10/19 10:58:45;;;;;;;31.58;18.65;;;11.70;99.90;;;;;;5070778;28;20048;-76
2023/10/19 11:01:11;;;;;;;30.13;19.77;;;11.60;99.90;;;;;;5090083;28;20578;-74
2023/10/19 11:03:37;;;;;;;35.63;20.83;;;11.70;99.90;;;;;;5089880;28;20036;-74
2023/10/19 11:06:07;;;;;;;34.15;19.75;;;11.70;99.90;;;;;;5070373;28;20078;-74
2023/10/19 11:08:35;;;;;;;37.05;19.75;;;11.60;99.90;;;;;;5088818;28;20101;-75
2023/10/19 11:11:12;;;;;;;30.92;19.50;;;11.60;99.90;;;;;;5070513;28;20051;-74
2023/10/19 11:13:39;;;;;;;34.63;19.38;;;11.70;99.90;;;;;;5088679;28;20048;-74
2023/10/19 11:16:07;;;;;;;30.95;18.88;;;11.70;99.90;;;;;;5070547;28;20095;-74
2023/10/19 11:18:41;;;;;;;31.48;19.88;;;11.70;99.90;;;;;;5088018;28;20044;-76
2023/10/19 11:21:12;;;;;;;30.63;19.17;;;11.70;99.90;;;;;;5068592;28;20048;-75
2023/10/19 11:23:48;;;;;;;38.28;20.13;;;11.70;99.90;;;;;;5070625;28;20084;-77
2023/10/19 11:26:21;;;;;;;31.73;18.38;;;11.80;99.90;;;;;;5089050;28;20063;-76
2023/10/19 11:28:56;;;;;;;31.23;17.88;;;11.80;99.90;;;;;;5071562;28;20056;-76
2023/10/19 11:31:23;;;;;;;31.50;20.17;;;11.80;99.90;;;;;;5092662;28;20056;-72
2023/10/19 11:33:53;;;;;;;34.53;20.02;;;11.80;99.90;;;;;;5092185;28;20088;-73
2023/10/19 11:36:20;;;;;;;32.13;19.98;;;11.90;99.90;;;;;;5074088;28;20036;-71
2023/10/19 11:38:47;;;;;;;37.28;19.88;;;12.00;99.90;;;;;;5073878;28;20055;-73
2023/10/19 11:41:15;;;;;;;33.65;19.63;;;12.00;99.90;;;;;;5092477;28;20127;-73
2023/10/19 11:43:42;;;;;;;30.75;20.35;;;12.00;99.90;;;;;;5073639;28;20067;-73
2023/10/19 11:46:09;;;;;;;34.55;20.40;;;12.10;99.90;;;;;;5073839;28;20062;-73
2023/10/19 11:48:36;;;;;;;32.10;20.50;;;12.20;99.90;;;;;;5073662;28;20063;-73
2023/10/19 11:51:03;;;;;;;30.42;18.88;;;12.30;99.90;;;;;;5073656;28;20131;-73
2023/10/19 11:53:34;;;;;;;28.75;18.23;;;12.30;99.90;;;;;;5092093;28;20422;-73
2023/10/19 11:56:02;;;;;;;31.73;19.80;;;12.30;99.90;;;;;;5092191;28;20083;-72
2023/10/19 11:58:28;;;;;;;28.60;18.65;;;12.30;99.90;;;;;;5091828;28;20079;-73
2023/10/19 12:00:54;;;;;;;31.58;17.92;;;12.40;99.90;;;;;;5073471;28;20061;-73
2023/10/19 12:03:20;;;;;;;30.00;17.63;;;12.40;99.90;;;;;;5091630;28;20036;-73
2023/10/19 12:05:46;;;;;;;27.75;16.88;;;12.40;99.90;;;;;;5091581;28;20036;-72
2023/10/19 12:08:12;;;;;;;29.85;17.55;;;12.50;99.90;;;;;;5073385;28;20052;-73
2023/10/19 12:10:38;;;;;;;31.52;18.42;;;12.50;99.90;;;;;;5091792;28;20044;-72
2023/10/19 12:13:08;;;;;;;29.45;18.73;;;12.50;99.90;;;;;;5073513;28;20048;-73
2023/10/19 12:15:34;;;;;;;24.35;16.50;;;12.50;99.90;;;;;;5073594;28;20052;-72
2023/10/19 12:18:02;;;;;;;29.70;18.48;;;12.50;99.90;;;;;;5091262;28;20071;-73
2023/10/19 12:20:30;;;;;;;28.27;18.15;;;12.50;99.90;;;;;;5073217;28;20063;-73
2023/10/19 12:23:00;;;;;;;27.20;18.13;;;12.50;99.90;;;;;;5091303;28;20529;-72
2023/10/19 12:25:29;;;;;;;28.02;18.27;;;12.50;99.90;;;;;;5073305;28;20225;-73
2023/10/19 12:27:57;;;;;;;30.15;17.23;;;12.50;99.90;;;;;;5073034;28;20044;-73
2023/10/19 12:30:26;;;;;;;23.98;16.20;;;12.60;99.90;;;;;;5091068;28;20100;-72
2023/10/19 12:32:52;;;;;;;28.95;17.15;;;12.60;99.90;;;;;;5090921;28;20048;-73
2023/10/19 12:35:24;;;;;;;27.40;16.58;;;12.60;99.90;;;;;;5072612;28;20135;-73
2023/10/19 12:37:53;;;;;;;27.85;17.52;;;12.60;99.90;;;;;;5073196;28;20076;-73
2023/10/19 12:40:31;;;;;;;27.60;17.52;;;12.60;99.90;;;;;;5091284;28;20112;-72
2023/10/19 12:42:57;;;;;;;29.92;17.27;;;12.70;99.90;;;;;;5072700;28;20064;-73
2023/10/19 12:45:25;;;;;;;26.08;16.60;;;12.70;99.90;;;;;;5072575;28;20113;-73
2023/10/19 12:47:54;;;;;;;26.85;16.88;;;12.60;99.90;;;;;;5091276;28;20064;-75
2023/10/19 12:50:24;;;;;;;30.23;17.90;;;12.70;99.90;;;;;;5090917;28;20074;-74
2023/10/19 12:52:50;;;;;;;27.17;17.35;;;12.70;99.90;;;;;;5055977;28;20052;-74
2023/10/19 12:55:17;;;;;;;25.52;16.63;;;12.60;99.90;;;;;;5072584;28;20067;-73
2023/10/19 12:57:43;;;;;;;31.63;17.08;;;12.60;99.90;;;;;;5072634;28;20044;-70
2023/10/19 13:00:29;;;;;;;29.77;17.05;;;12.60;99.90;;;;;;5090814;28;20043;-72
2023/10/19 13:03:03;;;;;;;28.45;18.15;;;12.60;99.90;;;;;;5072462;28;20792;-71
2023/10/19 13:05:34;;;;;;;29.27;18.73;;;12.60;99.90;;;;;;5091141;28;20052;-71
2023/10/19 13:08:00;;;;;;;30.88;18.77;;;12.60;99.90;;;;;;5072826;28;20040;-71
2023/10/19 13:10:33;;;;;;;29.95;18.50;;;12.50;99.90;;;;;;5090736;28;20042;-74
2023/10/19 13:13:11;;;;;;;28.35;18.08;;;12.50;99.90;;;;;;5056283;28;20352;-76
2023/10/19 13:15:38;;;;;;;30.90;18.50;;;12.60;99.90;;;;;;5072187;28;20047;-75
2023/10/19 13:18:09;;;;;;;31.17;17.73;;;12.50;99.90;;;;;;5071969;28;20380;-75
2023/10/19 13:20:37;;;;;;;29.17;18.13;;;12.60;99.90;;;;;;5090234;28;20098;-74